Time;durP1;ratioP1;P1;durP2;ratioP2;P2;SDS_P1;SDS_P2;PMS_P1;PMS_P2;Temp;Humidity;BMP_temperature;BMP_pressure;BME280_temperature;BME280_humidity;BME280_pressure;Samples;Min_cycle;Max_cycle;Signal;HPM_P1;HPM_P2
2023/03/07 00:02:00;;;;;;;10.20;5.73;;;-0.30;1.00;;;1.79;100.00;94393.03;5025959;28;20264;-71
2023/03/07 00:04:28;;;;;;;10.47;6.23;;;-0.40;1.00;;;1.75;100.00;94397.16;5023003;28;20221;-71
2023/03/07 00:06:56;;;;;;;10.73;6.20;;;-0.40;1.00;;;1.65;100.00;94397.78;5026862;28;20273;-71
2023/03/07 00:09:22;;;;;;;12.00;6.57;;;-0.40;1.00;;;1.80;100.00;94400.69;5031279;28;20217;-71
2023/03/07 00:11:50;;;;;;;12.00;5.93;;;-0.30;1.00;;;1.76;100.00;94407.44;5031368;28;20605;-71
2023/03/07 00:14:16;;;;;;;10.37;5.73;;;-0.30;1.00;;;1.81;100.00;94412.78;5030498;28;20289;-71
2023/03/07 00:16:44;;;;;;;12.60;6.37;;;-0.30;1.00;;;1.84;100.00;94414.16;5032796;28;20210;-71
2023/03/07 00:19:11;;;;;;;10.27;6.07;;;-0.30;1.00;;;1.83;100.00;94413.34;5027508;28;20207;-71
2023/03/07 00:21:39;;;;;;;12.37;6.80;;;-0.30;1.00;;;1.84;100.00;94409.66;5031943;28;20232;-71
2023/03/07 00:24:06;;;;;;;9.93;5.73;;;-0.30;1.00;;;1.76;100.00;94406.63;5027980;28;20238;-71
2023/03/07 00:26:38;;;;;;;13.80;6.17;;;-0.40;1.00;;;1.81;100.00;94402.28;5032019;28;20214;-71
2023/03/07 00:29:06;;;;;;;10.57;5.87;;;-0.30;1.00;;;1.87;100.00;94400.50;5027871;28;20213;-71
2023/03/07 00:31:33;;;;;;;11.10;6.40;;;-0.30;1.00;;;1.80;100.00;94403.31;5029708;28;20210;-71
2023/03/07 00:34:00;;;;;;;9.53;5.60;;;-0.30;1.00;;;1.73;100.00;94386.09;5027521;28;20221;-71
2023/03/07 00:36:27;;;;;;;9.97;5.60;;;-0.40;1.00;;;1.70;100.00;94387.34;5032078;28;20272;-71
2023/03/07 00:38:55;;;;;;;14.33;6.63;;;-0.40;1.00;;;1.84;100.00;94391.28;5027511;28;20214;-71
2023/03/07 00:41:25;;;;;;;10.73;6.10;;;-0.40;1.00;;;1.80;100.00;94377.03;5028057;28;20231;-71
2023/03/07 00:43:53;;;;;;;10.23;5.80;;;-0.40;1.00;;;1.87;100.00;94375.03;5030401;28;20217;-71
2023/03/07 00:46:22;;;;;;;11.00;6.27;;;-0.30;1.00;;;1.97;100.00;94374.41;5030525;28;20264;-71
2023/03/07 00:48:49;;;;;;;11.37;6.20;;;-0.30;1.00;;;1.84;100.00;94372.88;5024026;28;20238;-71
2023/03/07 00:51:18;;;;;;;12.00;6.00;;;-0.20;1.00;;;2.03;100.00;94365.59;5027227;28;20214;-71
2023/03/07 00:53:45;;;;;;;12.40;6.43;;;-0.20;1.00;;;1.98;100.00;94370.78;5024824;28;20281;-71
2023/03/07 00:56:15;;;;;;;11.83;6.17;;;-0.10;1.00;;;2.15;100.00;94359.25;5030510;28;20221;-71
2023/03/07 00:58:42;;;;;;;12.00;6.33;;;-0.10;1.00;;;2.11;100.00;94366.00;5026445;28;20217;-71
2023/03/07 01:01:13;;;;;;;12.73;6.53;;;0.00;1.00;;;2.19;100.00;94360.34;5028226;28;20234;-71
2023/03/07 01:03:40;;;;;;;10.80;6.60;;;0.10;1.00;;;2.29;100.00;94363.16;5028066;28;20213;-71
2023/03/07 01:06:12;;;;;;;12.53;6.40;;;0.10;1.00;;;2.25;100.00;94361.25;5027005;28;20202;-71
2023/03/07 01:08:39;;;;;;;12.17;6.70;;;0.10;1.00;;;2.32;100.00;94354.78;5017524;28;20613;-71
2023/03/07 01:11:08;;;;;;;13.97;6.97;;;0.20;1.00;;;2.32;100.00;94354.78;5029361;28;20202;-71
2023/03/07 01:13:36;;;;;;;10.20;5.97;;;0.20;1.00;;;2.40;100.00;94351.75;5028842;28;20268;-71
2023/03/07 01:16:09;;;;;;;10.63;6.10;;;0.30;1.00;;;2.37;100.00;94351.44;5027661;28;20587;-71
2023/03/07 01:18:35;;;;;;;12.20;6.40;;;0.20;1.00;;;2.40;100.00;94340.44;5028730;28;20261;-71
2023/03/07 01:21:11;;;;;;;10.23;5.93;;;0.20;1.00;;;2.34;100.00;94344.81;5025913;28;20230;-71
2023/03/07 01:23:37;;;;;;;11.27;6.27;;;0.30;1.00;;;2.38;100.00;94340.69;5023869;28;20237;-71
2023/03/07 01:26:04;;;;;;;10.77;5.90;;;0.30;1.00;;;2.64;100.00;94337.38;5026222;28;20273;-71
2023/03/07 01:28:31;;;;;;;10.90;6.57;;;0.30;1.00;;;2.99;100.00;94334.44;5024662;28;20210;-71
2023/03/07 01:31:00;;;;;;;10.93;5.60;;;0.30;1.00;;;2.46;100.00;94344.75;5030070;28;20233;-71
2023/03/07 01:33:27;;;;;;;13.60;5.73;;;0.40;1.00;;;2.63;100.00;94341.06;5024547;28;20217;-71
2023/03/07 01:35:53;;;;;;;11.87;6.60;;;0.30;1.00;;;2.84;100.00;94342.94;5027014;28;20206;-71
2023/03/07 01:38:20;;;;;;;15.53;7.03;;;0.30;1.00;;;2.68;100.00;94340.31;5029665;28;20205;-71
2023/03/07 01:40:47;;;;;;;13.73;6.53;;;0.30;1.00;;;2.48;100.00;94338.19;5027781;28;20234;-71
2023/03/07 01:43:25;;;;;;;11.93;6.67;;;0.30;1.00;;;2.42;100.00;94344.44;5030573;28;20652;-71
2023/03/07 01:46:32;;;;;;;11.40;6.03;;;0.30;1.00;;;2.37;100.00;94341.72;5026281;28;20268;-71
2023/03/07 01:49:03;;;;;;;13.27;6.23;;;0.30;1.00;;;2.26;100.00;94337.34;5026797;28;20260;-72
2023/03/07 01:51:31;;;;;;;12.00;6.83;;;0.30;1.00;;;2.37;100.00;94339.09;5033135;28;20199;-72
2023/03/07 01:54:00;;;;;;;12.40;6.20;;;0.30;1.00;;;2.46;100.00;94332.41;5024931;28;20214;-71
2023/03/07 01:56:28;;;;;;;11.90;6.73;;;0.30;1.00;;;2.43;100.00;94334.69;5033626;28;20214;-71
2023/03/07 01:58:55;;;;;;;11.50;7.17;;;0.30;1.00;;;2.32;100.00;94332.94;5025088;28;20219;-71
2023/03/07 02:01:23;;;;;;;15.40;7.37;;;0.30;1.00;;;2.36;100.00;94326.97;5029272;28;20210;-71
2023/03/07 02:03:55;;;;;;;12.73;7.60;;;0.30;1.00;;;2.32;100.00;94322.41;5029656;28;20238;-71
2023/03/07 02:06:26;;;;;;;13.13;6.23;;;0.30;1.00;;;2.33;100.00;94329.25;5024409;28;20198;-71
2023/03/07 02:08:54;;;;;;;11.60;6.77;;;0.20;1.00;;;2.41;100.00;94316.53;5024524;28;20212;-71
2023/03/07 02:11:21;;;;;;;13.53;7.07;;;0.20;1.00;;;2.30;100.00;94319.25;5028158;28;20241;-71
2023/03/07 02:13:48;;;;;;;10.93;6.13;;;0.20;1.00;;;2.24;100.00;94328.09;5032345;28;20706;-71
2023/03/07 02:16:15;;;;;;;13.03;6.83;;;0.20;1.00;;;2.19;100.00;94320.91;5028940;28;20573;-71
2023/03/07 02:18:45;;;;;;;10.60;6.77;;;0.20;1.00;;;2.21;100.00;94316.22;5028030;28;20222;-71
2023/03/07 02:21:28;;;;;;;12.97;6.93;;;0.20;1.00;;;2.26;100.00;94311.03;5025307;28;20376;-71
2023/03/07 02:24:02;;;;;;;11.37;6.57;;;0.20;1.00;;;2.24;100.00;94309.69;5027897;28;20253;-71
2023/03/07 02:26:53;;;;;;;12.03;6.80;;;0.10;1.00;;;2.21;100.00;94305.69;5026992;28;20206;-71
2023/03/07 02:29:21;;;;;;;12.67;7.23;;;0.10;1.00;;;2.17;100.00;94291.44;5020742;28;20275;-71
2023/03/07 02:31:48;;;;;;;13.87;7.27;;;0.10;1.00;;;2.22;100.00;94286.25;5026150;28;20203;-70
2023/03/07 02:34:20;;;;;;;13.23;6.77;;;0.10;1.00;;;2.17;100.00;94285.38;5026253;28;20570;-71
2023/03/07 02:36:50;;;;;;;12.70;7.43;;;0.00;1.00;;;2.14;100.00;94294.53;5032488;28;20576;-71
2023/03/07 02:39:18;;;;;;;12.37;6.93;;;0.10;1.00;;;2.14;100.00;94288.50;5029856;28;20210;-72
2023/03/07 02:41:45;;;;;;;15.40;7.50;;;0.00;1.00;;;2.10;100.00;94288.19;5030327;28;20280;-71
2023/03/07 02:44:14;;;;;;;13.80;7.13;;;0.00;1.00;;;2.10;100.00;94280.28;5033878;28;20218;-71
2023/03/07 02:46:40;;;;;;;12.60;6.93;;;0.00;1.00;;;2.05;100.00;94279.41;5032276;28;20668;-71
2023/03/07 02:49:07;;;;;;;14.10;7.00;;;0.00;1.00;;;1.96;100.00;94279.00;5031295;28;20217;-71
2023/03/07 02:51:34;;;;;;;14.13;7.63;;;0.00;1.00;;;2.08;100.00;94263.94;5032096;28;20240;-71
2023/03/07 02:54:01;;;;;;;14.70;8.00;;;0.00;1.00;;;2.11;100.00;94258.22;5028482;28;20300;-71
2023/03/07 02:56:28;;;;;;;14.53;7.63;;;0.00;1.00;;;2.11;100.00;94262.66;5033612;28;20293;-71
2023/03/07 02:58:55;;;;;;;15.00;7.97;;;0.10;1.00;;;2.03;100.00;94269.13;5029714;28;20656;-71
2023/03/07 03:01:23;;;;;;;15.60;7.57;;;0.10;1.00;;;2.17;100.00;94257.25;5035203;28;20291;-71
2023/03/07 03:03:50;;;;;;;15.87;7.83;;;0.20;1.00;;;2.20;100.00;94258.59;5032348;28;20270;-71
2023/03/07 03:06:17;;;;;;;18.07;8.97;;;0.30;1.00;;;2.33;100.00;94264.31;5032368;28;20222;-71
2023/03/07 03:08:44;;;;;;;14.97;7.27;;;0.30;1.00;;;2.37;100.00;94260.19;5028647;28;20213;-71
2023/03/07 03:11:10;;;;;;;13.10;6.93;;;0.30;1.00;;;2.44;100.00;94252.91;5023310;28;20207;-71
2023/03/07 03:13:37;;;;;;;13.93;7.80;;;0.40;1.00;;;2.40;100.00;94254.41;5029863;28;20252;-71
2023/03/07 03:16:05;;;;;;;14.40;8.30;;;0.40;1.00;;;2.39;100.00;94247.56;5022320;28;20261;-72
2023/03/07 03:18:33;;;;;;;14.13;7.93;;;0.40;1.00;;;2.43;100.00;94248.69;5030279;28;20205;-71
2023/03/07 03:21:00;;;;;;;14.50;7.93;;;0.60;1.00;;;2.48;100.00;94258.47;5026781;28;20317;-71
2023/03/07 03:23:27;;;;;;;13.33;6.57;;;0.50;1.00;;;2.47;100.00;94254.25;5027361;28;20238;-71
2023/03/07 03:25:59;;;;;;;17.50;7.23;;;0.60;1.00;;;2.83;100.00;94264.19;5030055;28;20666;-71
2023/03/07 03:28:25;;;;;;;15.53;7.60;;;0.60;1.00;;;2.57;100.00;94251.75;5029800;28;20207;-71
2023/03/07 03:31:00;;;;;;;14.13;7.57;;;0.70;1.00;;;2.66;100.00;94247.69;5028709;28;20234;-71
2023/03/07 03:33:28;;;;;;;13.10;7.87;;;0.70;1.00;;;2.68;100.00;94254.28;5023507;28;20214;-71
2023/03/07 03:35:56;;;;;;;13.23;6.93;;;0.70;1.00;;;2.70;100.00;94260.09;5028793;28;20237;-71
2023/03/07 03:38:23;;;;;;;12.50;7.30;;;0.70;1.00;;;2.74;100.00;94255.16;5030667;28;20210;-71
2023/03/07 03:40:49;;;;;;;15.57;7.90;;;0.70;1.00;;;2.63;100.00;94256.03;5029406;28;20230;-71
2023/03/07 03:43:16;;;;;;;14.03;8.07;;;0.70;1.00;;;2.61;100.00;94256.31;5034826;28;20207;-71
2023/03/07 03:45:43;;;;;;;15.47;7.07;;;0.70;1.00;;;2.62;100.00;94255.25;5029483;28;20218;-71
2023/03/07 03:48:10;;;;;;;14.67;7.63;;;0.60;1.00;;;2.57;100.00;94260.47;5033158;28;20322;-71
2023/03/07 03:50:37;;;;;;;15.47;7.57;;;0.70;1.00;;;2.61;100.00;94247.59;5028196;28;20207;-71
2023/03/07 03:53:05;;;;;;;13.57;7.63;;;0.70;1.00;;;2.96;100.00;94237.53;5029012;28;20274;-71
2023/03/07 03:55:32;;;;;;;14.63;7.30;;;0.60;1.00;;;2.94;100.00;94245.66;5029800;28;20222;-71
2023/03/07 03:57:59;;;;;;;13.80;7.07;;;0.60;1.00;;;2.84;100.00;94242.13;5029043;28;20252;-72
2023/03/07 04:00:25;;;;;;;12.90;7.47;;;0.60;1.00;;;2.95;100.00;94247.25;5028246;28;20218;-71
2023/03/07 04:02:52;;;;;;;12.43;7.17;;;0.60;1.00;;;2.66;100.00;94239.78;5030376;28;20230;-71
2023/03/07 04:05:19;;;;;;;14.60;7.77;;;0.50;1.00;;;2.62;100.00;94244.75;5029902;28;20272;-71
2023/03/07 04:07:46;;;;;;;14.10;7.53;;;0.50;1.00;;;2.85;100.00;94225.28;5029902;28;20202;-71
2023/03/07 04:10:14;;;;;;;14.37;7.23;;;0.50;1.00;;;2.79;100.00;94240.22;5029844;28;20648;-71
2023/03/07 04:12:42;;;;;;;16.13;7.80;;;0.50;1.00;;;2.53;100.00;94233.03;5031163;28;20206;-71
2023/03/07 04:15:11;;;;;;;11.77;7.00;;;0.60;1.00;;;2.52;100.00;94244.59;5029150;28;20214;-71
2023/03/07 04:17:38;;;;;;;14.37;7.27;;;0.60;1.00;;;2.57;100.00;94238.59;5032927;28;20209;-71
2023/03/07 04:20:13;;;;;;;14.47;7.93;;;0.60;1.00;;;2.67;100.00;94231.66;5029813;28;20272;-71
2023/03/07 04:22:40;;;;;;;12.87;7.33;;;0.60;1.00;;;2.62;100.00;94225.50;5024423;28;20230;-71
2023/03/07 04:25:07;;;;;;;15.50;7.87;;;0.60;1.00;;;2.55;100.00;94228.31;5029459;28;20211;-71
2023/03/07 04:27:35;;;;;;;12.30;6.73;;;0.60;1.00;;;2.66;100.00;94230.06;5031575;28;20611;-71
2023/03/07 04:30:02;;;;;;;11.93;7.07;;;0.60;1.00;;;2.62;100.00;94228.16;5031035;28;21165;-71
2023/03/07 04:32:29;;;;;;;11.37;6.57;;;0.60;1.00;;;2.52;100.00;94226.19;5030212;28;20611;-71
2023/03/07 04:34:56;;;;;;;14.23;7.17;;;0.60;1.00;;;2.65;100.00;94228.44;5030484;28;20210;-71
2023/03/07 04:37:23;;;;;;;15.27;8.00;;;0.60;1.00;;;2.66;100.00;94218.72;5028723;28;20202;-71
2023/03/07 04:39:50;;;;;;;14.30;7.53;;;0.70;1.00;;;2.77;100.00;94213.34;5026180;28;20207;-72
2023/03/07 04:42:17;;;;;;;13.60;7.33;;;0.70;1.00;;;2.67;100.00;94217.69;5030859;28;20313;-71
2023/03/07 04:44:45;;;;;;;13.67;7.43;;;0.60;1.00;;;2.67;100.00;94221.13;5027481;28;20268;-71
2023/03/07 04:47:12;;;;;;;13.93;6.57;;;0.70;1.00;;;2.67;100.00;94220.31;5030189;28;20210;-71
2023/03/07 04:49:39;;;;;;;13.57;7.10;;;0.70;1.00;;;2.70;100.00;94219.84;5029663;28;20245;-71
2023/03/07 04:52:06;;;;;;;11.97;7.03;;;0.70;1.00;;;2.69;100.00;94219.03;5027019;28;20206;-71
2023/03/07 04:54:33;;;;;;;12.80;7.47;;;0.70;1.00;;;2.72;100.00;94221.19;5024101;28;20271;-71
2023/03/07 04:57:00;;;;;;;11.23;6.97;;;0.70;1.00;;;2.80;100.00;94226.00;5024789;28;20218;-71
2023/03/07 04:59:27;;;;;;;12.97;7.27;;;0.70;1.00;;;2.74;100.00;94221.72;5029145;28;20210;-71
2023/03/07 05:01:55;;;;;;;14.13;7.17;;;0.70;1.00;;;2.80;100.00;94214.69;5026209;28;20271;-71
2023/03/07 05:04:22;;;;;;;14.77;7.17;;;0.70;1.00;;;2.78;100.00;94222.84;5026325;28;20222;-71
2023/03/07 05:06:48;;;;;;;13.47;6.90;;;0.80;1.00;;;2.86;100.00;94213.72;5030800;28;20252;-71
2023/03/07 05:09:15;;;;;;;11.80;6.97;;;0.80;1.00;;;2.89;100.00;94208.75;5028202;28;20357;-71
2023/03/07 05:11:42;;;;;;;10.77;6.70;;;0.80;1.00;;;2.85;100.00;94212.13;5021173;28;20215;-71
2023/03/07 05:14:09;;;;;;;15.37;6.80;;;0.70;1.00;;;2.76;100.00;94208.31;5028108;28;20267;-71
2023/03/07 05:16:35;;;;;;;12.80;6.97;;;0.70;1.00;;;2.78;100.00;94209.66;5021905;28;20270;-71
2023/03/07 05:19:04;;;;;;;10.70;6.43;;;0.80;1.00;;;2.85;100.00;94198.97;5026806;28;20677;-71
2023/03/07 05:21:31;;;;;;;12.80;6.17;;;0.80;1.00;;;2.79;100.00;94192.84;5027519;28;20222;-71
2023/03/07 05:23:58;;;;;;;11.57;6.80;;;0.70;1.00;;;2.80;100.00;94194.41;5025235;28;20239;-71
2023/03/07 05:26:24;;;;;;;14.23;7.27;;;0.70;1.00;;;2.76;100.00;94205.69;5021994;28;20256;-71
2023/03/07 05:28:51;;;;;;;11.00;6.77;;;0.70;1.00;;;2.84;100.00;94200.00;5025260;28;20210;-71
2023/03/07 05:31:18;;;;;;;12.13;7.10;;;0.70;1.00;;;2.88;100.00;94199.25;5021070;28;20211;-71
2023/03/07 05:33:45;;;;;;;12.33;6.53;;;0.70;1.00;;;2.72;100.00;94202.75;5031028;28;20570;-71
2023/03/07 05:36:13;;;;;;;14.07;7.53;;;0.70;1.00;;;2.82;100.00;94202.06;5026871;28;20685;-71
2023/03/07 05:38:40;;;;;;;12.43;6.63;;;0.70;1.00;;;2.86;100.00;94201.34;5028049;28;20256;-72
2023/03/07 05:41:06;;;;;;;12.40;7.23;;;0.70;1.00;;;2.94;100.00;94200.09;5021602;28;20300;-72
2023/03/07 05:43:33;;;;;;;11.67;6.40;;;0.70;1.00;;;2.94;100.00;94200.91;5025806;28;20210;-71
2023/03/07 05:46:00;;;;;;;11.27;6.73;;;0.70;1.00;;;2.94;100.00;94203.53;5026474;28;20211;-74
2023/03/07 05:48:27;;;;;;;11.20;6.83;;;0.70;1.00;;;2.88;100.00;94201.91;5017873;28;20273;-72
2023/03/07 05:50:53;;;;;;;11.90;6.40;;;0.80;1.00;;;2.83;100.00;94193.94;5024163;28;20211;-72
2023/03/07 05:53:22;;;;;;;13.93;6.73;;;0.80;1.00;;;2.87;100.00;94192.41;5029923;28;20206;-71
2023/03/07 05:55:48;;;;;;;10.53;6.53;;;0.80;1.00;;;2.80;100.00;94194.41;5024089;28;20764;-72
2023/03/07 05:58:16;;;;;;;13.03;7.37;;;0.80;1.00;;;2.81;100.00;94193.41;5023454;28;20340;-70
2023/03/07 06:00:43;;;;;;;11.60;7.30;;;0.80;1.00;;;2.89;100.00;94182.41;5023977;28;20220;-71
2023/03/07 06:03:19;;;;;;;12.53;6.43;;;0.80;1.00;;;2.76;100.00;94182.00;5025706;28;20287;-71
2023/03/07 06:05:49;;;;;;;11.87;6.93;;;0.80;1.00;;;2.85;100.00;94181.31;5027541;28;20216;-72
2023/03/07 06:08:16;;;;;;;11.67;6.73;;;0.80;1.00;;;2.93;100.00;94173.00;5025359;28;20211;-72
2023/03/07 06:10:44;;;;;;;11.30;6.90;;;0.80;1.00;;;2.96;100.00;94188.28;5026080;28;20267;-72
2023/03/07 06:13:16;;;;;;;9.57;5.90;;;0.80;1.00;;;2.85;100.00;94175.28;5022267;28;20210;-72
2023/03/07 06:15:42;;;;;;;11.57;7.30;;;0.80;1.00;;;2.94;100.00;94176.41;5031416;28;20623;-71
2023/03/07 06:18:09;;;;;;;11.57;6.80;;;0.80;1.00;;;2.88;100.00;94182.66;5027287;28;20206;-68
2023/03/07 06:20:36;;;;;;;11.87;6.83;;;0.80;1.00;;;2.85;100.00;94172.66;5031285;28;20206;-68
2023/03/07 06:23:03;;;;;;;13.47;7.10;;;0.80;1.00;;;2.97;100.00;94174.09;5025739;28;20229;-67
2023/03/07 06:25:30;;;;;;;13.60;6.90;;;0.80;1.00;;;3.10;100.00;94175.53;5039018;28;20205;-70
2023/03/07 06:28:00;;;;;;;12.70;6.87;;;1.00;1.00;;;3.02;100.00;94182.03;5032738;28;20214;-64
2023/03/07 06:30:27;;;;;;;11.53;6.80;;;1.00;1.00;;;3.14;100.00;94172.16;5025422;28;20594;-64
2023/03/07 06:32:54;;;;;;;13.43;7.17;;;0.90;1.00;;;3.06;100.00;94182.34;5025678;28;20323;-64
2023/03/07 06:35:21;;;;;;;10.63;6.43;;;0.90;1.00;;;3.01;100.00;94177.81;5030910;28;20221;-64
2023/03/07 06:37:50;;;;;;;14.77;7.23;;;0.90;1.00;;;3.09;100.00;94185.28;5034814;28;20211;-64
2023/03/07 06:40:17;;;;;;;13.33;7.10;;;1.00;1.00;;;3.46;100.00;94183.53;5034516;28;20263;-64
2023/03/07 06:42:44;;;;;;;11.03;6.77;;;1.00;1.00;;;3.53;100.00;94184.13;5030807;28;20950;-64
2023/03/07 06:45:12;;;;;;;12.93;8.13;;;1.00;1.00;;;3.33;100.00;94189.22;5028265;28;20219;-64
2023/03/07 06:47:39;;;;;;;11.93;6.40;;;1.00;1.00;;;3.21;100.00;94196.44;5031627;28;20213;-64
2023/03/07 06:50:08;;;;;;;10.90;6.50;;;1.00;1.00;;;3.24;100.00;94195.97;5030379;28;20265;-64
2023/03/07 06:52:34;;;;;;;11.83;6.83;;;1.00;1.00;;;3.25;100.00;94196.78;5034263;28;20211;-64
2023/03/07 06:55:02;;;;;;;13.90;6.67;;;1.00;1.00;;;3.21;100.00;94187.78;5028760;28;20341;-64
2023/03/07 06:57:29;;;;;;;11.27;6.40;;;1.10;1.00;;;3.21;100.00;94185.91;5032251;28;20299;-64
2023/03/07 06:59:56;;;;;;;13.60;6.43;;;1.10;1.00;;;3.29;100.00;94184.66;5028540;28;20269;-64
2023/03/07 07:02:25;;;;;;;11.10;6.53;;;1.10;1.00;;;3.32;100.00;94187.63;5031523;28;20222;-64
2023/03/07 07:04:52;;;;;;;11.70;6.53;;;1.20;1.00;;;3.30;100.00;94170.47;5027424;28;20218;-64
2023/03/07 07:07:19;;;;;;;13.03;6.97;;;1.20;1.00;;;3.34;100.00;94179.44;5025616;28;20673;-64
2023/03/07 07:09:46;;;;;;;12.97;6.30;;;1.30;1.00;;;3.46;100.00;94175.63;5035541;28;20227;-64
2023/03/07 07:12:13;;;;;;;11.93;7.10;;;1.20;1.00;;;3.47;100.00;94171.16;5031179;28;20212;-64
2023/03/07 07:14:40;;;;;;;12.70;6.17;;;1.30;1.00;;;3.32;100.00;94176.28;5037005;28;20707;-64
2023/03/07 07:17:06;;;;;;;12.23;5.87;;;1.30;1.00;;;3.42;100.00;94173.75;5031359;28;20212;-63
2023/03/07 07:19:35;;;;;;;9.37;5.77;;;1.30;1.00;;;3.41;100.00;94172.16;5031052;28;20260;-63
2023/03/07 07:22:02;;;;;;;12.43;6.07;;;1.40;1.00;;;3.56;100.00;94180.19;5027110;28;20227;-63
2023/03/07 07:24:29;;;;;;;11.50;6.33;;;1.40;1.00;;;3.43;100.00;94176.13;5030070;28;20787;-63
2023/03/07 07:26:56;;;;;;;9.47;5.30;;;1.40;1.00;;;3.57;100.00;94172.03;5031014;28;20297;-63
2023/03/07 07:29:24;;;;;;;9.10;5.90;;;1.40;1.00;;;3.53;100.00;94186.75;5029187;28;20210;-63
2023/03/07 07:31:51;;;;;;;11.30;6.63;;;1.50;1.00;;;3.65;100.00;94181.34;5029191;28;20206;-63
2023/03/07 07:34:18;;;;;;;10.17;6.17;;;1.50;1.00;;;3.64;100.00;94180.53;5031417;28;20211;-63
2023/03/07 07:36:46;;;;;;;10.03;5.83;;;1.50;1.00;;;3.81;100.00;94181.19;5029132;28;20628;-63
2023/03/07 07:39:16;;;;;;;10.30;6.07;;;1.60;1.00;;;3.81;100.00;94175.13;5030885;28;20706;-63
2023/03/07 07:41:44;;;;;;;12.30;6.17;;;1.70;1.00;;;3.94;100.00;94177.31;5027074;28;20268;-63
2023/03/07 07:44:11;;;;;;;9.27;5.80;;;1.70;1.00;;;4.02;100.00;94175.00;5029008;28;20956;-63
2023/03/07 07:46:38;;;;;;;9.87;5.77;;;1.80;1.00;;;3.95;100.00;94169.16;5029496;28;22139;-63
2023/03/07 07:49:04;;;;;;;11.03;6.03;;;1.90;1.00;;;4.04;100.00;94170.28;5030756;28;20215;-63
2023/03/07 07:51:32;;;;;;;10.47;5.43;;;1.90;1.00;;;4.21;100.00;94173.56;5027848;28;20728;-63
2023/03/07 07:54:01;;;;;;;10.37;6.03;;;2.00;1.00;;;4.27;100.00;94174.38;5028678;28;20207;-63
2023/03/07 07:56:27;;;;;;;11.67;5.67;;;2.10;1.00;;;4.39;100.00;94181.06;5027600;28;20212;-63
2023/03/07 07:58:54;;;;;;;9.07;5.43;;;2.10;1.00;;;4.46;100.00;94173.69;5027315;28;20254;-63
2023/03/07 08:01:24;;;;;;;11.10;6.33;;;2.20;1.00;;;4.48;100.00;94170.81;5027197;28;20208;-65
2023/03/07 08:03:51;;;;;;;10.70;6.20;;;2.20;1.00;;;4.60;100.00;94177.47;5028998;28;20675;-63
2023/03/07 08:06:20;;;;;;;8.97;5.47;;;2.30;1.00;;;4.50;100.00;94182.69;5028214;28;20211;-63
2023/03/07 08:08:47;;;;;;;8.83;5.70;;;2.30;1.00;;;4.66;100.00;94176.44;5030236;28;20211;-63
2023/03/07 08:11:16;;;;;;;9.47;5.37;;;2.40;1.00;;;4.59;100.00;94178.53;5028235;28;20208;-63
2023/03/07 08:13:43;;;;;;;9.13;5.87;;;2.40;1.00;;;4.59;100.00;94183.00;5029960;28;20955;-63
2023/03/07 08:16:12;;;;;;;8.87;5.33;;;2.40;1.00;;;4.39;100.00;94173.16;5026741;28;20226;-63
2023/03/07 08:18:38;;;;;;;11.37;5.53;;;2.30;1.00;;;4.42;100.00;94188.44;5028932;28;20295;-63
2023/03/07 08:21:06;;;;;;;8.20;5.20;;;2.30;1.00;;;4.28;100.00;94175.97;5027891;28;20659;-63
2023/03/07 08:23:33;;;;;;;10.17;5.10;;;2.20;1.00;;;4.41;100.00;94180.78;5025385;28;20715;-63
2023/03/07 08:26:02;;;;;;;8.07;5.03;;;2.20;1.00;;;4.47;100.00;94174.50;5026102;28;20232;-64
2023/03/07 08:28:31;;;;;;;9.33;4.93;;;2.20;1.00;;;4.39;100.00;94167.88;5031139;28;20312;-63
2023/03/07 08:30:58;;;;;;;7.53;4.87;;;2.20;1.00;;;4.51;100.00;94165.00;5027560;28;20706;-63
2023/03/07 08:33:25;;;;;;;8.77;5.13;;;2.30;1.00;;;4.33;100.00;94168.91;5031819;28;20635;-63
2023/03/07 08:35:52;;;;;;;8.93;5.23;;;2.20;1.00;;;4.47;100.00;94174.50;5028138;28;20254;-63
2023/03/07 08:38:18;;;;;;;9.47;5.33;;;2.20;1.00;;;4.42;100.00;94169.19;5029693;28;20259;-63
2023/03/07 08:40:45;;;;;;;11.53;5.50;;;2.20;1.00;;;4.34;100.00;94173.13;5025994;28;20304;-63
2023/03/07 08:43:12;;;;;;;8.73;4.80;;;2.20;1.00;;;4.59;100.00;94167.16;5032368;28;20686;-67
2023/03/07 08:45:41;;;;;;;9.90;5.80;;;2.20;1.00;;;4.57;100.00;94161.34;5026371;28;20260;-63
2023/03/07 08:48:09;;;;;;;8.10;5.10;;;2.30;1.00;;;4.75;100.00;94163.53;5027111;28;20214;-63
2023/03/07 08:50:38;;;;;;;9.77;5.60;;;2.40;1.00;;;4.88;100.00;94161.19;5027999;28;20211;-63
2023/03/07 08:53:05;;;;;;;10.63;5.23;;;2.50;1.00;;;4.91;100.00;94167.81;5026546;28;20213;-63
2023/03/07 08:55:35;;;;;;;8.77;4.80;;;2.60;1.00;;;4.92;100.00;94175.47;5024078;28;20214;-63
2023/03/07 08:58:02;;;;;;;8.23;5.23;;;2.60;1.00;;;4.79;100.00;94169.88;5029627;28;20211;-63
2023/03/07 09:00:29;;;;;;;8.03;4.63;;;2.60;1.00;;;4.98;100.00;94173.66;5027928;28;20216;-63
2023/03/07 09:03:00;;;;;;;8.80;4.70;;;2.60;1.00;;;4.94;100.00;94170.75;5026990;28;20274;-63
2023/03/07 09:05:27;;;;;;;6.37;4.37;;;2.60;1.00;;;5.03;100.00;94161.25;5026406;28;20202;-62
2023/03/07 09:07:55;;;;;;;8.00;4.50;;;2.70;1.00;;;5.00;100.00;94160.97;5027701;28;20209;-63
2023/03/07 09:10:23;;;;;;;7.10;4.30;;;2.80;1.00;;;4.91;100.00;94159.88;5030859;28;20216;-62
2023/03/07 09:12:50;;;;;;;6.40;4.33;;;2.80;1.00;;;5.09;100.00;94157.59;5013901;28;20213;-62
2023/03/07 09:15:17;;;;;;;7.40;4.60;;;2.70;1.00;;;5.08;100.00;94155.19;5020548;28;20213;-62
2023/03/07 09:17:44;;;;;;;7.40;4.20;;;2.80;1.00;;;5.10;100.00;94151.25;5018690;28;20599;-62
2023/03/07 09:20:15;;;;;;;6.17;4.10;;;2.80;1.00;;;4.97;100.00;94167.56;5020335;28;20886;-62
2023/03/07 09:22:42;;;;;;;6.87;3.97;;;2.80;1.00;;;4.94;100.00;94170.75;5024181;28;20228;-62
2023/03/07 09:25:09;;;;;;;7.80;4.03;;;2.70;1.00;;;4.97;100.00;94169.44;5021558;28;20213;-62
2023/03/07 09:27:36;;;;;;;10.13;4.30;;;2.70;1.00;;;4.81;100.00;94175.69;5025567;28;20207;-62
2023/03/07 09:30:04;;;;;;;6.00;3.50;;;2.70;1.00;;;4.60;100.00;94174.81;5024115;28;20217;-62
2023/03/07 09:32:32;;;;;;;5.73;3.80;;;2.60;1.00;;;4.81;100.00;94165.94;5025246;28;20205;-62
2023/03/07 09:34:59;;;;;;;5.07;3.63;;;2.50;1.00;;;4.74;100.00;94172.50;5023166;28;20211;-62
2023/03/07 09:37:27;;;;;;;6.43;3.90;;;2.50;1.00;;;4.78;100.00;94174.34;5025389;28;20208;-62
2023/03/07 09:39:54;;;;;;;8.33;4.23;;;2.60;1.00;;;4.73;100.00;94168.28;5022436;28;20223;-63
2023/03/07 09:42:26;;;;;;;6.60;3.93;;;2.60;1.00;;;4.58;100.00;94161.06;5026990;28;20715;-63
2023/03/07 09:45:17;;;;;;;6.90;4.17;;;2.60;1.00;;;4.66;100.00;94157.94;5008818;28;20255;-63
2023/03/07 09:48:38;;;;;;;5.70;3.60;;;2.50;1.00;;;4.64;100.00;94153.97;5020550;28;20203;-63
2023/03/07 09:51:15;;;;;;;6.53;4.07;;;2.50;1.00;;;4.65;100.00;94148.44;5027831;28;20278;-63
2023/03/07 09:53:47;;;;;;;6.13;3.77;;;2.50;1.00;;;4.73;100.00;94145.28;5026240;28;20200;-63
2023/03/07 09:56:23;;;;;;;6.30;3.97;;;2.40;1.00;;;4.49;100.00;94144.16;5021585;28;20278;-63
2023/03/07 09:58:59;;;;;;;6.23;4.00;;;2.40;1.00;;;4.57;100.00;94148.16;5023375;28;20281;-62
2023/03/07 10:01:30;;;;;;;7.03;4.13;;;2.40;1.00;;;4.57;100.00;94143.66;5026695;28;20246;-62
2023/03/07 10:04:01;;;;;;;8.10;4.37;;;2.40;1.00;;;4.76;100.00;94139.50;5026492;28;20231;-62
2023/03/07 10:06:34;;;;;;;5.77;4.00;;;2.50;1.00;;;4.89;100.00;94136.41;5025207;28;20653;-62
2023/03/07 10:09:04;;;;;;;7.20;4.50;;;2.60;1.00;;;4.89;100.00;94133.75;5023517;28;20205;-62
2023/03/07 10:11:53;;;;;;;8.67;4.63;;;2.60;1.00;;;4.77;100.00;94132.41;5027302;28;20209;-62
2023/03/07 10:14:40;;;;;;;6.97;4.20;;;2.60;1.00;;;4.65;100.00;94148.44;5026160;28;20572;-62
2023/03/07 10:17:20;;;;;;;7.60;4.40;;;2.50;1.00;;;4.68;100.00;94137.34;5028454;28;20255;-62
2023/03/07 10:19:50;;;;;;;8.13;4.07;;;2.50;1.00;;;4.76;100.00;94136.06;5023293;28;20211;-62
2023/03/07 10:22:28;;;;;;;7.03;4.20;;;2.50;1.00;;;4.73;100.00;94144.53;5030240;28;20266;-62
2023/03/07 10:25:19;;;;;;;12.23;4.30;;;2.50;1.00;;;4.74;100.00;94143.47;5023618;28;20583;-62
2023/03/07 10:27:48;;;;;;;7.03;4.50;;;2.60;1.00;;;4.72;100.00;94142.94;5025949;28;20267;-62
2023/03/07 10:30:18;;;;;;;7.67;4.40;;;2.60;1.00;;;4.57;100.00;94135.72;5028969;28;20218;-62
2023/03/07 10:32:46;;;;;;;7.23;4.00;;;2.50;1.00;;;4.79;100.00;94135.56;5024220;28;20210;-62
2023/03/07 10:35:19;;;;;;;7.30;3.97;;;2.50;1.00;;;4.82;100.00;94122.63;5022920;28;20207;-64